sensor_id;sensor_type;location;lat;lon;timestamp;pressure;altitude;pressure_sealevel;temperature;humidity
45071;BME280;30836;48.906;9.140;2023-09-19T00:00:39;981.92;;;24.44;48.64
45071;BME280;30836;48.906;9.140;2023-09-19T00:01:40;981.94;;;24.39;49.13
45071;BME280;30836;48.906;9.140;2023-09-19T00:02:41;981.96;;;24.35;48.95
45071;BME280;30836;48.906;9.140;2023-09-19T00:03:41;981.92;;;24.39;48.87
45071;BME280;30836;48.906;9.140;2023-09-19T00:04:41;981.94;;;24.43;48.93
45071;BME280;30836;48.906;9.140;2023-09-19T00:05:42;981.98;;;24.45;49.16
45071;BME280;30836;48.906;9.140;2023-09-19T00:06:42;981.98;;;24.46;49.34
45071;BME280;30836;48.906;9.140;2023-09-19T00:07:43;981.98;;;24.47;49.29
45071;BME280;30836;48.906;9.140;2023-09-19T00:08:43;982.14;;;24.41;49.94
45071;BME280;30836;48.906;9.140;2023-09-19T00:09:43;982.04;;;24.29;50.04
45071;BME280;30836;48.906;9.140;2023-09-19T00:10:44;982.14;;;24.25;50.19
45071;BME280;30836;48.906;9.140;2023-09-19T00:11:44;982.14;;;24.19;50.30
45071;BME280;30836;48.906;9.140;2023-09-19T00:12:45;982.14;;;24.11;50.65
45071;BME280;30836;48.906;9.140;2023-09-19T00:13:47;982.14;;;24.03;50.90
45071;BME280;30836;48.906;9.140;2023-09-19T00:14:48;982.18;;;23.96;50.98
45071;BME280;30836;48.906;9.140;2023-09-19T00:15:48;982.22;;;23.92;51.00
45071;BME280;30836;48.906;9.140;2023-09-19T00:16:49;982.22;;;23.92;51.20
45071;BME280;30836;48.906;9.140;2023-09-19T00:17:49;982.24;;;23.96;50.71
45071;BME280;30836;48.906;9.140;2023-09-19T00:18:49;982.26;;;24.01;50.78
45071;BME280;30836;48.906;9.140;2023-09-19T00:19:50;982.20;;;24.00;51.01
45071;BME280;30836;48.906;9.140;2023-09-19T00:20:50;982.22;;;24.01;50.71
45071;BME280;30836;48.906;9.140;2023-09-19T00:21:51;982.22;;;24.02;50.84
45071;BME280;30836;48.906;9.140;2023-09-19T00:22:51;982.22;;;23.99;50.94
45071;BME280;30836;48.906;9.140;2023-09-19T00:23:52;982.24;;;23.89;51.51
45071;BME280;30836;48.906;9.140;2023-09-19T00:24:52;982.28;;;23.75;51.50
45071;BME280;30836;48.906;9.140;2023-09-19T00:25:52;982.32;;;23.68;51.81
45071;BME280;30836;48.906;9.140;2023-09-19T00:26:53;982.32;;;23.64;51.89
45071;BME280;30836;48.906;9.140;2023-09-19T00:27:54;982.32;;;23.66;51.48
45071;BME280;30836;48.906;9.140;2023-09-19T00:28:54;982.32;;;23.71;51.38
45071;BME280;30836;48.906;9.140;2023-09-19T00:29:55;982.30;;;23.69;51.79
45071;BME280;30836;48.906;9.140;2023-09-19T00:30:55;982.32;;;23.64;51.81
45071;BME280;30836;48.906;9.140;2023-09-19T00:31:56;982.34;;;23.62;51.78
45071;BME280;30836;48.906;9.140;2023-09-19T00:32:56;982.38;;;23.60;51.86
45071;BME280;30836;48.906;9.140;2023-09-19T00:33:57;982.40;;;23.57;51.89
45071;BME280;30836;48.906;9.140;2023-09-19T00:34:57;982.38;;;23.54;51.97
45071;BME280;30836;48.906;9.140;2023-09-19T00:35:58;982.40;;;23.61;51.39
45071;BME280;30836;48.906;9.140;2023-09-19T00:36:58;982.40;;;23.72;51.43
45071;BME280;30836;48.906;9.140;2023-09-19T00:37:58;982.40;;;23.80;51.19
45071;BME280;30836;48.906;9.140;2023-09-19T00:38:59;982.40;;;23.89;50.94
45071;BME280;30836;48.906;9.140;2023-09-19T00:39:59;982.40;;;23.98;50.87
45071;BME280;30836;48.906;9.140;2023-09-19T00:41:00;982.44;;;24.02;50.76
45071;BME280;30836;48.906;9.140;2023-09-19T00:42:00;982.44;;;24.02;50.85
45071;BME280;30836;48.906;9.140;2023-09-19T00:43:01;982.42;;;23.98;51.17
45071;BME280;30836;48.906;9.140;2023-09-19T00:44:01;982.44;;;23.99;50.63
45071;BME280;30836;48.906;9.140;2023-09-19T00:45:02;982.46;;;24.11;50.32
45071;BME280;30836;48.906;9.140;2023-09-19T00:46:03;982.44;;;24.16;50.51
45071;BME280;30836;48.906;9.140;2023-09-19T00:47:03;982.48;;;24.16;50.33
45071;BME280;30836;48.906;9.140;2023-09-19T00:48:04;982.48;;;24.19;50.34
45071;BME280;30836;48.906;9.140;2023-09-19T00:49:05;982.50;;;24.26;49.96
45071;BME280;30836;48.906;9.140;2023-09-19T00:50:08;982.51;;;24.34;49.92
45071;BME280;30836;48.906;9.140;2023-09-19T00:50:20;982.48;;;24.37;49.93
45071;BME280;30836;48.906;9.140;2023-09-19T00:51:22;982.48;;;24.39;49.82
45071;BME280;30836;48.906;9.140;2023-09-19T00:52:23;982.51;;;24.39;49.98
45071;BME280;30836;48.906;9.140;2023-09-19T00:53:25;982.51;;;24.35;50.11
45071;BME280;30836;48.906;9.140;2023-09-19T00:54:25;982.51;;;24.28;50.33
45071;BME280;30836;48.906;9.140;2023-09-19T00:55:26;982.51;;;24.20;50.42
45071;BME280;30836;48.906;9.140;2023-09-19T00:56:29;982.50;;;24.18;50.29
45071;BME280;30836;48.906;9.140;2023-09-19T00:57:30;982.50;;;24.24;49.97
45071;BME280;30836;48.906;9.140;2023-09-19T00:58:30;982.50;;;24.36;49.56
45071;BME280;30836;48.906;9.140;2023-09-19T00:59:31;982.50;;;24.47;49.48
45071;BME280;30836;48.906;9.140;2023-09-19T01:00:32;982.51;;;24.55;49.22
45071;BME280;30836;48.906;9.140;2023-09-19T01:01:34;982.48;;;24.63;49.06
45071;BME280;30836;48.906;9.140;2023-09-19T01:02:35;982.53;;;24.66;49.07
45071;BME280;30836;48.906;9.140;2023-09-19T01:03:36;982.51;;;24.66;49.08
45071;BME280;30836;48.906;9.140;2023-09-19T01:04:37;982.51;;;24.67;49.22
45071;BME280;30836;48.906;9.140;2023-09-19T01:05:37;982.50;;;24.68;48.96
45071;BME280;30836;48.906;9.140;2023-09-19T01:06:38;982.50;;;24.74;48.94
45071;BME280;30836;48.906;9.140;2023-09-19T01:07:39;982.51;;;24.77;48.89
45071;BME280;30836;48.906;9.140;2023-09-19T01:08:39;982.55;;;24.71;49.15
45071;BME280;30836;48.906;9.140;2023-09-19T01:09:40;982.55;;;24.65;49.12
45071;BME280;30836;48.906;9.140;2023-09-19T01:11:06;982.55;;;24.69;48.85
45071;BME280;30836;48.906;9.140;2023-09-19T01:11:53;982.57;;;24.71;49.00
45071;BME280;30836;48.906;9.140;2023-09-19T01:13:03;982.57;;;24.68;49.06
45071;BME280;30836;48.906;9.140;2023-09-19T01:17:44;982.63;;;24.71;48.86
45071;BME280;30836;48.906;9.140;2023-09-19T01:30:32;982.75;;;24.44;49.39
45071;BME280;30836;48.906;9.140;2023-09-19T01:31:35;982.75;;;24.38;49.50
45071;BME280;30836;48.906;9.140;2023-09-19T01:32:37;982.83;;;24.28;50.04
45071;BME280;30836;48.906;9.140;2023-09-19T01:34:54;982.81;;;24.09;50.12
45071;BME280;30836;48.906;9.140;2023-09-19T01:35:55;982.81;;;24.16;49.92
45071;BME280;30836;48.906;9.140;2023-09-19T01:36:56;982.81;;;24.22;49.85
45071;BME280;30836;48.906;9.140;2023-09-19T01:37:56;982.79;;;24.23;49.90
45071;BME280;30836;48.906;9.140;2023-09-19T01:38:57;982.79;;;24.22;49.72
45071;BME280;30836;48.906;9.140;2023-09-19T01:40:00;982.77;;;24.25;49.63
45071;BME280;30836;48.906;9.140;2023-09-19T01:41:05;982.79;;;24.27;49.66
45071;BME280;30836;48.906;9.140;2023-09-19T01:43:22;982.85;;;24.25;49.87
45071;BME280;30836;48.906;9.140;2023-09-19T01:46:52;982.87;;;24.30;49.36
45071;BME280;30836;48.906;9.140;2023-09-19T01:47:59;982.85;;;24.35;49.35
45071;BME280;30836;48.906;9.140;2023-09-19T01:50:30;982.85;;;24.40;49.04
45071;BME280;30836;48.906;9.140;2023-09-19T01:53:27;982.87;;;24.49;48.89
45071;BME280;30836;48.906;9.140;2023-09-19T01:55:08;982.93;;;24.44;49.29
45071;BME280;30836;48.906;9.140;2023-09-19T01:56:12;982.95;;;24.40;49.18
45071;BME280;30836;48.906;9.140;2023-09-19T01:57:27;982.97;;;24.37;49.15
45071;BME280;30836;48.906;9.140;2023-09-19T01:58:33;982.97;;;24.35;49.19
45071;BME280;30836;48.906;9.140;2023-09-19T01:59:40;982.97;;;24.36;49.22
45071;BME280;30836;48.906;9.140;2023-09-19T02:00:45;982.99;;;24.34;49.35
45071;BME280;30836;48.906;9.140;2023-09-19T02:01:48;982.99;;;24.29;49.46
45071;BME280;30836;48.906;9.140;2023-09-19T02:02:50;983.01;;;24.25;49.37
45071;BME280;30836;48.906;9.140;2023-09-19T02:03:51;983.01;;;24.26;49.23
45071;BME280;30836;48.906;9.140;2023-09-19T02:04:52;983.05;;;24.25;49.36
45071;BME280;30836;48.906;9.140;2023-09-19T02:05:54;983.03;;;24.08;50.30
45071;BME280;30836;48.906;9.140;2023-09-19T02:06:55;983.05;;;23.95;50.10
45071;BME280;30836;48.906;9.140;2023-09-19T02:07:55;983.06;;;23.94;50.09
45071;BME280;30836;48.906;9.140;2023-09-19T02:08:56;983.03;;;23.94;49.93
45071;BME280;30836;48.906;9.140;2023-09-19T02:09:06;983.05;;;23.99;49.94
45071;BME280;30836;48.906;9.140;2023-09-19T02:10:07;983.05;;;23.97;50.13
45071;BME280;30836;48.906;9.140;2023-09-19T02:11:07;983.03;;;23.88;50.32
45071;BME280;30836;48.906;9.140;2023-09-19T02:12:09;983.05;;;23.75;51.00
45071;BME280;30836;48.906;9.140;2023-09-19T02:13:09;983.01;;;23.58;51.28
45071;BME280;30836;48.906;9.140;2023-09-19T02:14:10;983.03;;;23.46;51.49
45071;BME280;30836;48.906;9.140;2023-09-19T02:15:10;983.03;;;23.38;51.53
45071;BME280;30836;48.906;9.140;2023-09-19T02:16:11;983.05;;;23.35;51.42
45071;BME280;30836;48.906;9.140;2023-09-19T02:17:11;983.03;;;23.36;51.52
45071;BME280;30836;48.906;9.140;2023-09-19T02:18:15;983.03;;;23.33;51.61
45071;BME280;30836;48.906;9.140;2023-09-19T02:19:15;983.05;;;23.29;51.62
45071;BME280;30836;48.906;9.140;2023-09-19T02:20:16;983.06;;;23.33;51.28
45071;BME280;30836;48.906;9.140;2023-09-19T02:21:19;983.10;;;23.47;50.69
45071;BME280;30836;48.906;9.140;2023-09-19T02:22:19;983.14;;;23.66;50.27
45071;BME280;30836;48.906;9.140;2023-09-19T02:23:20;983.16;;;23.84;49.91
45071;BME280;30836;48.906;9.140;2023-09-19T02:24:20;983.16;;;23.97;49.76
45071;BME280;30836;48.906;9.140;2023-09-19T02:25:21;983.20;;;24.05;49.68
45071;BME280;30836;48.906;9.140;2023-09-19T02:26:21;983.18;;;24.12;49.50
45071;BME280;30836;48.906;9.140;2023-09-19T02:27:22;983.20;;;24.19;49.19
45071;BME280;30836;48.906;9.140;2023-09-19T02:28:22;983.24;;;24.27;49.02
45071;BME280;30836;48.906;9.140;2023-09-19T02:29:23;983.20;;;24.36;48.81
45071;BME280;30836;48.906;9.140;2023-09-19T02:30:23;983.20;;;24.39;48.86
45071;BME280;30836;48.906;9.140;2023-09-19T02:31:23;983.16;;;24.40;48.74
45071;BME280;30836;48.906;9.140;2023-09-19T02:32:24;983.18;;;24.43;48.63
45071;BME280;30836;48.906;9.140;2023-09-19T02:33:24;983.16;;;24.49;48.38
45071;BME280;30836;48.906;9.140;2023-09-19T02:34:25;983.20;;;24.57;48.21
45071;BME280;30836;48.906;9.140;2023-09-19T02:35:25;983.20;;;24.64;48.15
45071;BME280;30836;48.906;9.140;2023-09-19T02:36:26;983.20;;;24.68;47.91
45071;BME280;30836;48.906;9.140;2023-09-19T02:37:26;983.22;;;24.70;47.84
45071;BME280;30836;48.906;9.140;2023-09-19T02:38:27;983.24;;;24.75;47.69
45071;BME280;30836;48.906;9.140;2023-09-19T02:39:28;983.24;;;24.76;47.86
45071;BME280;30836;48.906;9.140;2023-09-19T02:40:28;983.26;;;24.72;47.85
45071;BME280;30836;48.906;9.140;2023-09-19T02:41:29;983.22;;;24.74;47.77
45071;BME280;30836;48.906;9.140;2023-09-19T02:42:29;983.22;;;24.78;47.63
45071;BME280;30836;48.906;9.140;2023-09-19T02:43:30;983.26;;;24.83;47.47
45071;BME280;30836;48.906;9.140;2023-09-19T02:44:30;983.26;;;24.88;47.39
45071;BME280;30836;48.906;9.140;2023-09-19T02:45:31;983.30;;;24.90;47.40
45071;BME280;30836;48.906;9.140;2023-09-19T02:46:31;983.32;;;24.91;47.27
45071;BME280;30836;48.906;9.140;2023-09-19T02:47:32;983.30;;;24.91;47.35
45071;BME280;30836;48.906;9.140;2023-09-19T02:48:32;983.32;;;24.90;47.33
45071;BME280;30836;48.906;9.140;2023-09-19T02:49:33;983.32;;;24.91;47.30
45071;BME280;30836;48.906;9.140;2023-09-19T02:50:33;983.36;;;24.91;47.35
45071;BME280;30836;48.906;9.140;2023-09-19T02:51:34;983.36;;;24.90;47.32
45071;BME280;30836;48.906;9.140;2023-09-19T02:52:34;983.38;;;24.92;47.28
45071;BME280;30836;48.906;9.140;2023-09-19T02:53:35;983.36;;;24.96;47.21
45071;BME280;30836;48.906;9.140;2023-09-19T02:54:35;983.38;;;24.95;47.37
45071;BME280;30836;48.906;9.140;2023-09-19T02:55:36;983.34;;;24.89;47.44
45071;BME280;30836;48.906;9.140;2023-09-19T02:56:36;983.34;;;24.85;47.45
45071;BME280;30836;48.906;9.140;2023-09-19T02:57:37;983.34;;;24.83;47.55
45071;BME280;30836;48.906;9.140;2023-09-19T02:58:37;983.34;;;24.81;47.52
45071;BME280;30836;48.906;9.140;2023-09-19T02:59:38;983.36;;;24.84;47.30
45071;BME280;30836;48.906;9.140;2023-09-19T03:00:38;983.38;;;24.87;47.30
45071;BME280;30836;48.906;9.140;2023-09-19T03:01:39;983.38;;;24.89;47.30
45071;BME280;30836;48.906;9.140;2023-09-19T03:02:39;983.40;;;24.89;47.32
45071;BME280;30836;48.906;9.140;2023-09-19T03:03:40;983.40;;;24.85;47.55
45071;BME280;30836;48.906;9.140;2023-09-19T03:04:40;983.40;;;24.79;47.59
45071;BME280;30836;48.906;9.140;2023-09-19T03:05:41;983.42;;;24.77;47.61
45071;BME280;30836;48.906;9.140;2023-09-19T03:06:41;983.42;;;24.78;47.59
45071;BME280;30836;48.906;9.140;2023-09-19T03:07:42;983.44;;;24.78;47.57
45071;BME280;30836;48.906;9.140;2023-09-19T03:08:42;983.44;;;24.77;47.54
45071;BME280;30836;48.906;9.140;2023-09-19T03:09:43;983.46;;;24.77;47.55
45071;BME280;30836;48.906;9.140;2023-09-19T03:10:45;983.50;;;24.76;47.60
45071;BME280;30836;48.906;9.140;2023-09-19T03:11:46;983.44;;;24.76;47.55
45071;BME280;30836;48.906;9.140;2023-09-19T03:12:47;983.46;;;24.78;47.51
45071;BME280;30836;48.906;9.140;2023-09-19T03:14:53;983.42;;;24.72;47.67
45071;BME280;30836;48.906;9.140;2023-09-19T03:15:54;983.46;;;24.67;47.84
45071;BME280;30836;48.906;9.140;2023-09-19T03:16:55;983.44;;;24.65;47.75
45071;BME280;30836;48.906;9.140;2023-09-19T03:17:55;983.44;;;24.67;47.64
45071;BME280;30836;48.906;9.140;2023-09-19T03:18:55;983.48;;;24.67;47.68
45071;BME280;30836;48.906;9.140;2023-09-19T03:19:56;983.48;;;24.65;47.81
45071;BME280;30836;48.906;9.140;2023-09-19T03:20:56;983.50;;;24.63;47.78
45071;BME280;30836;48.906;9.140;2023-09-19T03:21:57;983.52;;;24.64;47.69
45071;BME280;30836;48.906;9.140;2023-09-19T03:22:57;983.50;;;24.66;47.65
45071;BME280;30836;48.906;9.140;2023-09-19T03:23:58;983.50;;;24.68;47.69
45071;BME280;30836;48.906;9.140;2023-09-19T03:24:58;983.52;;;24.66;47.78
45071;BME280;30836;48.906;9.140;2023-09-19T03:25:58;983.54;;;24.61;48.02
45071;BME280;30836;48.906;9.140;2023-09-19T03:26:59;983.54;;;24.55;47.88
45071;BME280;30836;48.906;9.140;2023-09-19T03:28:00;983.52;;;24.54;47.94
45071;BME280;30836;48.906;9.140;2023-09-19T03:29:03;983.50;;;24.55;47.91
45071;BME280;30836;48.906;9.140;2023-09-19T03:30:04;983.50;;;24.56;47.88
45071;BME280;30836;48.906;9.140;2023-09-19T03:31:05;983.52;;;24.59;47.86
45071;BME280;30836;48.906;9.140;2023-09-19T03:32:06;983.54;;;24.60;47.85
45071;BME280;30836;48.906;9.140;2023-09-19T03:33:07;983.54;;;24.61;47.93
45071;BME280;30836;48.906;9.140;2023-09-19T03:34:08;983.52;;;24.62;47.86
45071;BME280;30836;48.906;9.140;2023-09-19T03:35:08;983.54;;;24.64;47.89
45071;BME280;30836;48.906;9.140;2023-09-19T03:36:09;983.54;;;24.65;47.92
45071;BME280;30836;48.906;9.140;2023-09-19T03:37:09;983.52;;;24.68;47.82
45071;BME280;30836;48.906;9.140;2023-09-19T03:38:10;983.52;;;24.70;47.94
45071;BME280;30836;48.906;9.140;2023-09-19T03:39:10;983.50;;;24.71;47.94
45071;BME280;30836;48.906;9.140;2023-09-19T03:40:11;983.50;;;24.71;47.88
45071;BME280;30836;48.906;9.140;2023-09-19T03:41:12;983.52;;;24.71;48.03
45071;BME280;30836;48.906;9.140;2023-09-19T03:42:12;983.56;;;24.72;48.05
45071;BME280;30836;48.906;9.140;2023-09-19T03:43:12;983.56;;;24.70;48.26
45071;BME280;30836;48.906;9.140;2023-09-19T03:44:13;983.57;;;24.67;48.30
45071;BME280;30836;48.906;9.140;2023-09-19T03:45:13;983.57;;;24.65;48.26
45071;BME280;30836;48.906;9.140;2023-09-19T03:46:14;983.57;;;24.67;48.23
45071;BME280;30836;48.906;9.140;2023-09-19T03:47:14;983.57;;;24.69;48.27
45071;BME280;30836;48.906;9.140;2023-09-19T03:48:15;983.56;;;24.72;48.20
45071;BME280;30836;48.906;9.140;2023-09-19T03:49:15;983.54;;;24.75;48.22
45071;BME280;30836;48.906;9.140;2023-09-19T03:50:16;983.54;;;24.75;48.35
45071;BME280;30836;48.906;9.140;2023-09-19T03:51:16;983.56;;;24.74;48.31
45071;BME280;30836;48.906;9.140;2023-09-19T03:52:17;983.56;;;24.74;48.20
45071;BME280;30836;48.906;9.140;2023-09-19T03:53:17;983.54;;;24.75;48.31
45071;BME280;30836;48.906;9.140;2023-09-19T03:54:17;983.54;;;24.74;48.40
45071;BME280;30836;48.906;9.140;2023-09-19T03:55:18;983.54;;;24.71;48.53
45071;BME280;30836;48.906;9.140;2023-09-19T03:56:18;983.54;;;24.65;48.83
45071;BME280;30836;48.906;9.140;2023-09-19T03:57:19;983.54;;;24.62;48.68
45071;BME280;30836;48.906;9.140;2023-09-19T03:58:19;983.54;;;24.64;48.61
45071;BME280;30836;48.906;9.140;2023-09-19T03:59:20;983.54;;;24.64;48.68
45071;BME280;30836;48.906;9.140;2023-09-19T04:00:20;983.54;;;24.65;48.60
45071;BME280;30836;48.906;9.140;2023-09-19T04:01:20;983.56;;;24.64;48.87
45071;BME280;30836;48.906;9.140;2023-09-19T04:02:21;983.56;;;24.62;48.79
45071;BME280;30836;48.906;9.140;2023-09-19T04:03:22;983.54;;;24.60;48.86
45071;BME280;30836;48.906;9.140;2023-09-19T04:04:22;983.57;;;24.58;48.74
45071;BME280;30836;48.906;9.140;2023-09-19T04:05:23;983.61;;;24.60;48.77
45071;BME280;30836;48.906;9.140;2023-09-19T04:06:24;983.63;;;24.62;48.67
45071;BME280;30836;48.906;9.140;2023-09-19T04:07:24;983.63;;;24.65;48.65
45071;BME280;30836;48.906;9.140;2023-09-19T04:08:25;983.61;;;24.66;48.71
45071;BME280;30836;48.906;9.140;2023-09-19T04:09:25;983.63;;;24.63;48.92
45071;BME280;30836;48.906;9.140;2023-09-19T04:10:25;983.61;;;24.60;48.79
45071;BME280;30836;48.906;9.140;2023-09-19T04:11:26;983.61;;;24.60;48.90
45071;BME280;30836;48.906;9.140;2023-09-19T04:12:26;983.61;;;24.61;48.70
45071;BME280;30836;48.906;9.140;2023-09-19T04:13:27;983.61;;;24.62;48.78
45071;BME280;30836;48.906;9.140;2023-09-19T04:14:27;983.65;;;24.63;48.87
45071;BME280;30836;48.906;9.140;2023-09-19T04:15:27;983.63;;;24.60;49.04
45071;BME280;30836;48.906;9.140;2023-09-19T04:16:28;983.67;;;24.57;49.04
45071;BME280;30836;48.906;9.140;2023-09-19T04:17:28;983.67;;;24.55;49.08
45071;BME280;30836;48.906;9.140;2023-09-19T04:18:29;983.67;;;24.53;49.05
45071;BME280;30836;48.906;9.140;2023-09-19T04:19:30;983.65;;;24.53;49.17
45071;BME280;30836;48.906;9.140;2023-09-19T04:20:30;983.65;;;24.52;49.19
45071;BME280;30836;48.906;9.140;2023-09-19T04:21:31;983.65;;;24.52;49.11
45071;BME280;30836;48.906;9.140;2023-09-19T04:22:31;983.67;;;24.53;49.14
45071;BME280;30836;48.906;9.140;2023-09-19T04:23:32;983.71;;;24.57;49.13
45071;BME280;30836;48.906;9.140;2023-09-19T04:24:33;983.71;;;24.62;48.85
45071;BME280;30836;48.906;9.140;2023-09-19T04:25:33;983.69;;;24.68;48.69
45071;BME280;30836;48.906;9.140;2023-09-19T04:26:33;983.73;;;24.72;48.76
45071;BME280;30836;48.906;9.140;2023-09-19T04:27:34;983.75;;;24.73;48.96
45071;BME280;30836;48.906;9.140;2023-09-19T04:28:34;983.75;;;24.74;48.93
45071;BME280;30836;48.906;9.140;2023-09-19T04:29:35;983.73;;;24.76;48.83
45071;BME280;30836;48.906;9.140;2023-09-19T04:30:35;983.73;;;24.80;48.60
45071;BME280;30836;48.906;9.140;2023-09-19T04:31:36;983.75;;;24.85;48.46
45071;BME280;30836;48.906;9.140;2023-09-19T04:32:37;983.75;;;24.89;48.24
45071;BME280;30836;48.906;9.140;2023-09-19T04:33:38;983.77;;;24.92;48.23
45071;BME280;30836;48.906;9.140;2023-09-19T04:34:38;983.75;;;24.95;48.19
45071;BME280;30836;48.906;9.140;2023-09-19T04:35:39;983.75;;;24.96;48.06
45071;BME280;30836;48.906;9.140;2023-09-19T04:36:39;983.75;;;24.98;48.09
45071;BME280;30836;48.906;9.140;2023-09-19T04:37:40;983.83;;;25.00;48.00
45071;BME280;30836;48.906;9.140;2023-09-19T04:38:41;983.83;;;25.03;47.97
45071;BME280;30836;48.906;9.140;2023-09-19T04:39:41;983.83;;;25.05;47.97
45071;BME280;30836;48.906;9.140;2023-09-19T04:40:41;983.81;;;25.08;47.95
45071;BME280;30836;48.906;9.140;2023-09-19T04:41:42;983.83;;;25.11;47.88
45071;BME280;30836;48.906;9.140;2023-09-19T04:42:43;983.79;;;25.14;47.84
45071;BME280;30836;48.906;9.140;2023-09-19T04:43:44;983.81;;;25.19;47.78
45071;BME280;30836;48.906;9.140;2023-09-19T04:44:44;983.81;;;25.24;47.69
45071;BME280;30836;48.906;9.140;2023-09-19T04:45:44;983.83;;;25.29;47.55
45071;BME280;30836;48.906;9.140;2023-09-19T04:46:45;983.85;;;25.34;47.41
45071;BME280;30836;48.906;9.140;2023-09-19T04:47:46;983.87;;;25.37;47.38
45071;BME280;30836;48.906;9.140;2023-09-19T04:48:46;983.87;;;25.41;47.30
45071;BME280;30836;48.906;9.140;2023-09-19T04:49:47;983.89;;;25.44;47.19
45071;BME280;30836;48.906;9.140;2023-09-19T04:50:48;983.89;;;25.47;47.17
45071;BME280;30836;48.906;9.140;2023-09-19T04:51:48;983.91;;;25.49;47.18
45071;BME280;30836;48.906;9.140;2023-09-19T04:52:49;983.93;;;25.51;47.12
45071;BME280;30836;48.906;9.140;2023-09-19T04:53:50;983.93;;;25.52;47.02
45071;BME280;30836;48.906;9.140;2023-09-19T04:54:51;983.99;;;25.53;47.01
45071;BME280;30836;48.906;9.140;2023-09-19T04:55:51;984.01;;;25.54;47.20
45071;BME280;30836;48.906;9.140;2023-09-19T04:56:52;984.03;;;25.54;47.22
45071;BME280;30836;48.906;9.140;2023-09-19T04:57:52;984.05;;;25.54;47.27
45071;BME280;30836;48.906;9.140;2023-09-19T04:58:53;984.08;;;25.53;47.35
45071;BME280;30836;48.906;9.140;2023-09-19T04:59:54;984.08;;;25.52;47.54
45071;BME280;30836;48.906;9.140;2023-09-19T05:00:54;984.10;;;25.51;47.59
45071;BME280;30836;48.906;9.140;2023-09-19T05:01:55;984.12;;;25.49;47.99
45071;BME280;30836;48.906;9.140;2023-09-19T05:02:56;984.14;;;25.46;48.12
45071;BME280;30836;48.906;9.140;2023-09-19T05:03:57;984.12;;;25.45;48.04
45071;BME280;30836;48.906;9.140;2023-09-19T05:04:57;984.10;;;25.44;48.20
45071;BME280;30836;48.906;9.140;2023-09-19T05:05:58;984.14;;;25.41;48.49
45071;BME280;30836;48.906;9.140;2023-09-19T05:06:58;984.14;;;25.38;48.62
45071;BME280;30836;48.906;9.140;2023-09-19T05:07:59;984.16;;;25.35;48.60
45071;BME280;30836;48.906;9.140;2023-09-19T05:08:59;984.22;;;25.31;48.63
45071;BME280;30836;48.906;9.140;2023-09-19T05:09:59;984.20;;;25.28;48.81
45071;BME280;30836;48.906;9.140;2023-09-19T05:11:03;984.16;;;25.25;49.01
45071;BME280;30836;48.906;9.140;2023-09-19T05:12:03;984.16;;;25.20;49.23
45071;BME280;30836;48.906;9.140;2023-09-19T05:13:04;984.28;;;25.15;49.25
45071;BME280;30836;48.906;9.140;2023-09-19T05:14:05;984.34;;;25.09;49.55
45071;BME280;30836;48.906;9.140;2023-09-19T05:15:06;984.36;;;25.00;49.98
45071;BME280;30836;48.906;9.140;2023-09-19T05:16:07;984.42;;;24.88;50.60
45071;BME280;30836;48.906;9.140;2023-09-19T05:17:07;984.40;;;24.76;50.74
45071;BME280;30836;48.906;9.140;2023-09-19T05:18:08;984.38;;;24.67;50.90
45071;BME280;30836;48.906;9.140;2023-09-19T05:19:08;984.40;;;24.59;51.06
45071;BME280;30836;48.906;9.140;2023-09-19T05:20:09;984.36;;;24.46;51.36
45071;BME280;30836;48.906;9.140;2023-09-19T05:21:10;984.36;;;24.29;51.95
45071;BME280;30836;48.906;9.140;2023-09-19T05:22:10;984.34;;;24.10;52.24
45071;BME280;30836;48.906;9.140;2023-09-19T05:23:11;984.34;;;23.93;52.76
45071;BME280;30836;48.906;9.140;2023-09-19T05:24:11;984.36;;;23.69;53.66
45071;BME280;30836;48.906;9.140;2023-09-19T05:25:12;984.38;;;23.40;53.84
45071;BME280;30836;48.906;9.140;2023-09-19T05:26:12;984.36;;;23.11;54.09
45071;BME280;30836;48.906;9.140;2023-09-19T05:27:16;984.36;;;22.88;54.45
45071;BME280;30836;48.906;9.140;2023-09-19T05:28:17;984.38;;;22.71;54.65
45071;BME280;30836;48.906;9.140;2023-09-19T05:29:17;984.40;;;22.52;55.45
45071;BME280;30836;48.906;9.140;2023-09-19T05:30:17;984.36;;;22.36;55.58
45071;BME280;30836;48.906;9.140;2023-09-19T05:31:18;984.40;;;22.28;55.84
45071;BME280;30836;48.906;9.140;2023-09-19T05:32:18;984.40;;;22.20;56.14
45071;BME280;30836;48.906;9.140;2023-09-19T05:33:19;984.46;;;22.09;56.49
45071;BME280;30836;48.906;9.140;2023-09-19T05:34:20;984.44;;;22.00;56.89
45071;BME280;30836;48.906;9.140;2023-09-19T05:35:20;984.44;;;21.92;57.07
45071;BME280;30836;48.906;9.140;2023-09-19T05:36:21;984.50;;;21.88;57.15
45071;BME280;30836;48.906;9.140;2023-09-19T05:37:21;984.44;;;21.84;57.56
45071;BME280;30836;48.906;9.140;2023-09-19T05:38:22;984.44;;;21.80;57.51
45071;BME280;30836;48.906;9.140;2023-09-19T05:39:23;984.44;;;21.78;57.61
45071;BME280;30836;48.906;9.140;2023-09-19T05:40:23;984.46;;;21.74;57.82
45071;BME280;30836;48.906;9.140;2023-09-19T05:41:24;984.46;;;21.76;57.65
45071;BME280;30836;48.906;9.140;2023-09-19T05:42:25;984.48;;;21.79;57.62
45071;BME280;30836;48.906;9.140;2023-09-19T05:43:25;984.50;;;21.84;57.55
45071;BME280;30836;48.906;9.140;2023-09-19T05:44:26;984.48;;;21.90;57.26
45071;BME280;30836;48.906;9.140;2023-09-19T05:45:26;984.50;;;21.98;57.20
45071;BME280;30836;48.906;9.140;2023-09-19T05:46:27;984.54;;;22.05;57.00
45071;BME280;30836;48.906;9.140;2023-09-19T05:47:28;984.52;;;22.13;56.87
45071;BME280;30836;48.906;9.140;2023-09-19T05:48:28;984.54;;;22.18;56.86
45071;BME280;30836;48.906;9.140;2023-09-19T05:49:28;984.55;;;22.17;57.24
45071;BME280;30836;48.906;9.140;2023-09-19T05:50:29;984.55;;;22.12;57.24
45071;BME280;30836;48.906;9.140;2023-09-19T05:51:30;984.57;;;22.12;57.14
45071;BME280;30836;48.906;9.140;2023-09-19T05:52:30;984.61;;;22.13;57.26
45071;BME280;30836;48.906;9.140;2023-09-19T05:53:31;984.70;;;22.09;57.51
45071;BME280;30836;48.906;9.140;2023-09-19T05:54:32;984.70;;;22.07;57.47
45071;BME280;30836;48.906;9.140;2023-09-19T05:55:32;984.74;;;22.08;57.49